createdAt,value
2023-02-19T00:01:40.885Z,8.56
2023-02-19T00:04:08.404Z,8.53
2023-02-19T00:06:35.055Z,8.51
2023-02-19T00:09:01.548Z,8.61
2023-02-19T00:11:29.301Z,8.61
2023-02-19T00:13:55.981Z,8.62
2023-02-19T00:16:23.810Z,8.58
2023-02-19T00:18:50.300Z,8.55
2023-02-19T00:21:16.856Z,8.60
2023-02-19T00:23:43.347Z,8.51
2023-02-19T00:26:18.257Z,8.44
2023-02-19T00:28:45.403Z,8.39
2023-02-19T00:31:19.073Z,8.37
2023-02-19T00:33:46.247Z,8.41
2023-02-19T00:36:12.689Z,8.42
2023-02-19T00:38:39.910Z,8.45
2023-02-19T00:41:19.148Z,8.49
2023-02-19T00:43:49.837Z,8.50
2023-02-19T00:46:16.851Z,8.50
2023-02-19T00:48:43.621Z,8.50
2023-02-19T00:51:10.382Z,8.57
2023-02-19T00:53:36.970Z,8.48
2023-02-19T00:56:03.545Z,8.32
2023-02-19T00:58:30.535Z,8.21
2023-02-19T01:00:57.118Z,8.20
2023-02-19T01:03:23.663Z,8.15
2023-02-19T01:05:50.872Z,8.21
2023-02-19T01:08:17.542Z,8.25
2023-02-19T01:10:44.089Z,8.27
2023-02-19T01:13:10.702Z,8.36
2023-02-19T01:15:37.275Z,8.31
2023-02-19T01:18:03.925Z,8.26
2023-02-19T01:20:30.669Z,8.27
2023-02-19T01:22:57.155Z,8.24
2023-02-19T01:25:23.891Z,8.33
2023-02-19T01:27:50.326Z,8.32
2023-02-19T01:30:16.839Z,8.34
2023-02-19T01:32:43.296Z,8.36
2023-02-19T01:35:10.013Z,8.30
2023-02-19T01:37:36.456Z,8.26
2023-02-19T01:40:02.910Z,8.19
2023-02-19T01:42:29.362Z,8.18
2023-02-19T01:45:22.213Z,8.13
2023-02-19T01:47:50.120Z,8.12
2023-02-19T01:50:16.568Z,8.13
2023-02-19T01:52:43.048Z,8.08
2023-02-19T01:55:10.931Z,8.02
2023-02-19T01:57:38.271Z,8.04
2023-02-19T02:00:14.569Z,8.08
2023-02-19T02:02:41.529Z,8.01
2023-02-19T02:05:09.820Z,8.00
2023-02-19T02:07:54.978Z,7.93
2023-02-19T02:10:21.559Z,7.90
2023-02-19T02:12:48.548Z,7.91
2023-02-19T02:15:15.453Z,7.86
2023-02-19T02:17:47.359Z,7.88
2023-02-19T02:20:20.213Z,7.83
2023-02-19T02:22:46.635Z,7.81
2023-02-19T02:25:19.260Z,7.80
2023-02-19T02:28:06.630Z,7.80
2023-02-19T02:30:39.281Z,7.83
2023-02-19T02:33:11.871Z,7.84
2023-02-19T02:35:46.692Z,7.81
2023-02-19T02:38:13.193Z,7.86
2023-02-19T02:40:39.964Z,7.88
2023-02-19T02:43:06.955Z,7.83
2023-02-19T02:45:37.042Z,7.84
2023-02-19T02:48:06.796Z,7.90
2023-02-19T02:50:37.446Z,7.92
2023-02-19T02:53:24.282Z,7.90
2023-02-19T02:55:51.902Z,7.92
2023-02-19T02:58:18.538Z,7.96
2023-02-19T03:01:03.748Z,7.94
2023-02-19T03:03:30.427Z,7.94
2023-02-19T03:05:58.632Z,7.93
2023-02-19T03:08:27.237Z,7.94
2023-02-19T03:10:55.840Z,7.95
2023-02-19T03:13:42.006Z,7.96
2023-02-19T03:16:29.152Z,7.94
2023-02-19T03:19:14.919Z,7.97
2023-02-19T03:21:41.534Z,8.05
2023-02-19T03:24:27.858Z,8.07
2023-02-19T03:26:54.545Z,8.04
2023-02-19T03:29:23.259Z,8.00
2023-02-19T03:31:50.247Z,7.92
2023-02-19T03:34:18.392Z,7.87
2023-02-19T03:36:46.209Z,7.90
2023-02-19T03:39:13.162Z,7.90
2023-02-19T03:41:58.225Z,7.88
2023-02-19T03:44:43.645Z,7.84
2023-02-19T03:47:13.734Z,7.77
2023-02-19T03:49:48.896Z,7.75
2023-02-19T03:52:20.884Z,7.73
2023-02-19T03:54:49.685Z,7.80
2023-02-19T03:57:21.245Z,7.78
2023-02-19T03:59:47.682Z,7.80
2023-02-19T04:02:15.031Z,7.75
2023-02-19T04:04:44.810Z,7.72
2023-02-19T04:07:11.318Z,7.72
2023-02-19T04:09:38.895Z,7.71
2023-02-19T04:12:05.439Z,7.65
2023-02-19T04:14:31.879Z,7.60
2023-02-19T04:16:59.173Z,7.60
2023-02-19T04:19:25.959Z,7.56
2023-02-19T04:21:52.401Z,7.55
2023-02-19T04:24:22.785Z,7.56
2023-02-19T04:26:49.250Z,7.51
2023-02-19T04:29:15.779Z,7.48
2023-02-19T04:31:45.478Z,7.46
2023-02-19T04:34:11.956Z,7.45
2023-02-19T04:36:38.557Z,7.44
2023-02-19T04:39:05.080Z,7.46
2023-02-19T04:41:31.645Z,7.50
2023-02-19T04:43:58.067Z,7.48
2023-02-19T04:46:24.750Z,7.47
2023-02-19T04:48:51.453Z,7.44
2023-02-19T04:51:18.030Z,7.46
2023-02-19T04:53:44.652Z,7.45
2023-02-19T04:56:14.686Z,7.44
2023-02-19T04:58:41.445Z,7.44
2023-02-19T05:01:08.124Z,7.41
2023-02-19T05:03:37.641Z,7.44
2023-02-19T05:06:07.926Z,7.51
2023-02-19T05:08:34.362Z,7.52
2023-02-19T05:11:00.951Z,7.54
2023-02-19T05:13:27.452Z,7.55
2023-02-19T05:15:57.595Z,7.57
2023-02-19T05:18:24.103Z,7.55
2023-02-19T05:20:50.775Z,7.50
2023-02-19T05:23:17.329Z,7.48
2023-02-19T05:25:43.750Z,7.55
2023-02-19T05:28:19.351Z,7.56
2023-02-19T05:30:50.029Z,7.53
2023-02-19T05:33:17.126Z,7.51
2023-02-19T05:35:53.533Z,7.55
2023-02-19T05:38:20.211Z,7.56
2023-02-19T05:40:46.823Z,7.53
2023-02-19T05:43:13.383Z,7.49
2023-02-19T05:45:39.966Z,7.47
2023-02-19T05:48:06.835Z,7.44
2023-02-19T05:51:01.155Z,7.50
2023-02-19T05:53:27.583Z,7.51
2023-02-19T05:55:54.023Z,7.48
2023-02-19T05:58:20.631Z,7.57
2023-02-19T06:00:47.069Z,7.55
2023-02-19T06:03:13.502Z,7.54
2023-02-19T06:05:40.011Z,7.52
2023-02-19T06:08:06.451Z,7.47
2023-02-19T06:10:33.044Z,7.46
2023-02-19T06:12:59.497Z,7.43
2023-02-19T06:15:25.937Z,7.40
2023-02-19T06:17:52.691Z,7.41
2023-02-19T06:20:19.373Z,7.41
2023-02-19T06:22:45.998Z,7.39
2023-02-19T06:25:12.843Z,7.39
2023-02-19T06:27:39.547Z,7.41
2023-02-19T06:30:06.248Z,7.44
2023-02-19T06:32:32.768Z,7.47
2023-02-19T06:34:59.273Z,7.46
2023-02-19T06:37:25.739Z,7.38
2023-02-19T06:39:52.248Z,7.34
2023-02-19T06:42:19.254Z,7.31
2023-02-19T06:44:45.768Z,7.32
2023-02-19T06:47:12.220Z,7.37
2023-02-19T06:49:41.804Z,7.40
2023-02-19T06:52:08.497Z,7.38
2023-02-19T06:54:35.113Z,7.39
2023-02-19T06:57:01.703Z,7.36
2023-02-19T06:59:28.235Z,7.41
2023-02-19T07:01:54.746Z,7.39
2023-02-19T07:04:21.515Z,7.37
2023-02-19T07:06:48.134Z,7.38
2023-02-19T07:09:14.713Z,7.36
2023-02-19T07:11:41.278Z,7.34
2023-02-19T07:14:08.480Z,7.31
2023-02-19T07:16:35.082Z,7.30
2023-02-19T07:19:01.628Z,7.31
2023-02-19T07:21:28.163Z,7.33
2023-02-19T07:23:54.733Z,7.32
2023-02-19T07:26:21.247Z,7.27
2023-02-19T07:28:48.209Z,7.27
2023-02-19T07:31:15.640Z,7.24
2023-02-19T07:33:45.393Z,7.26
2023-02-19T07:36:11.920Z,7.26
2023-02-19T07:38:38.379Z,7.29
2023-02-19T07:41:05.027Z,7.29
2023-02-19T07:43:32.260Z,7.37
2023-02-19T07:45:58.742Z,7.37
2023-02-19T07:48:25.268Z,7.38
2023-02-19T07:50:55.427Z,7.41
2023-02-19T07:53:22.072Z,7.46
2023-02-19T07:55:49.021Z,7.47
2023-02-19T07:58:15.545Z,7.44
2023-02-19T08:00:41.978Z,7.45
2023-02-19T08:03:08.601Z,7.51
2023-02-19T08:05:38.043Z,7.53
2023-02-19T08:08:08.249Z,7.57
2023-02-19T08:10:53.485Z,7.55
2023-02-19T08:13:20.063Z,7.54
2023-02-19T08:15:46.771Z,7.56
2023-02-19T08:18:13.390Z,7.53
2023-02-19T08:20:39.980Z,7.58
2023-02-19T08:23:06.428Z,7.59
2023-02-19T08:25:33.002Z,7.59
2023-02-19T08:28:00.484Z,7.56
2023-02-19T08:30:27.669Z,7.56
2023-02-19T08:32:54.415Z,7.61
2023-02-19T08:35:21.020Z,7.70
2023-02-19T08:37:47.500Z,7.10
2023-02-19T08:40:13.922Z,7.70
2023-02-19T08:42:40.487Z,7.71
2023-02-19T08:45:07.155Z,7.69
2023-02-19T08:47:36.778Z,7.69
2023-02-19T08:50:05.125Z,7.77
2023-02-19T08:52:31.763Z,7.77
2023-02-19T08:54:58.332Z,7.76
2023-02-19T08:57:25.212Z,7.83
2023-02-19T08:59:51.667Z,7.86
2023-02-19T09:02:18.141Z,7.87
2023-02-19T09:04:44.600Z,7.85
2023-02-19T09:07:12.129Z,7.78
2023-02-19T09:09:38.688Z,7.80
2023-02-19T09:12:05.807Z,7.85
2023-02-19T09:14:33.073Z,7.82
2023-02-19T09:16:59.503Z,7.81
2023-02-19T09:19:26.552Z,7.82
2023-02-19T09:21:53.113Z,7.88
2023-02-19T09:24:19.684Z,7.86
2023-02-19T09:26:48.664Z,7.88
2023-02-19T09:29:15.498Z,7.87
2023-02-19T09:31:42.211Z,7.89
2023-02-19T09:34:08.757Z,7.91
2023-02-19T09:36:35.285Z,7.97
2023-02-19T09:39:02.136Z,7.98
2023-02-19T09:41:32.600Z,7.93
2023-02-19T09:43:59.293Z,7.87
2023-02-19T09:46:30.790Z,7.90
2023-02-19T09:48:59.179Z,7.89
2023-02-19T09:51:25.612Z,7.95
2023-02-19T09:53:52.145Z,7.89
2023-02-19T09:56:18.655Z,7.86
2023-02-19T09:58:48.745Z,7.89
2023-02-19T10:01:15.267Z,7.94
2023-02-19T10:03:43.832Z,8.01
2023-02-19T10:06:24.075Z,8.06
2023-02-19T10:08:51.730Z,8.01
2023-02-19T10:11:18.829Z,8.01
2023-02-19T10:13:57.459Z,7.97
2023-02-19T10:16:24.983Z,8.00
2023-02-19T10:18:51.472Z,8.06
2023-02-19T10:21:19.949Z,8.06
2023-02-19T10:23:47.122Z,7.99
2023-02-19T10:26:13.744Z,7.89
2023-02-19T10:28:40.444Z,7.82
2023-02-19T10:31:18.849Z,7.78
2023-02-19T10:33:52.995Z,7.79
2023-02-19T10:36:22.908Z,7.85
2023-02-19T10:38:49.556Z,7.78
2023-02-19T10:41:21.044Z,7.77
2023-02-19T10:43:59.870Z,7.81
2023-02-19T10:46:27.360Z,7.80
2023-02-19T10:48:55.477Z,7.81
2023-02-19T10:51:22.998Z,7.87
2023-02-19T10:53:50.230Z,8.04
2023-02-19T10:56:26.561Z,8.20
2023-02-19T10:58:53.188Z,8.25
2023-02-19T11:01:20.281Z,8.27
2023-02-19T11:03:50.287Z,8.35
2023-02-19T11:06:17.714Z,8.35
2023-02-19T11:08:53.431Z,8.34
2023-02-19T11:11:22.860Z,8.28
2023-02-19T11:13:49.293Z,8.25
2023-02-19T11:16:15.845Z,8.22
2023-02-19T11:18:45.348Z,8.29
2023-02-19T11:21:28.993Z,8.35
2023-02-19T11:23:55.712Z,8.38
2023-02-19T11:26:25.672Z,8.51
2023-02-19T11:28:55.683Z,8.55
2023-02-19T11:31:31.818Z,8.57
2023-02-19T11:34:29.230Z,8.62
2023-02-19T11:37:09.340Z,8.58
2023-02-19T11:39:36.094Z,8.60
2023-02-19T11:42:08.519Z,8.60
2023-02-19T11:44:39.875Z,8.69
2023-02-19T11:47:06.298Z,8.73
2023-02-19T11:49:35.864Z,8.75
2023-02-19T11:52:05.345Z,8.70
2023-02-19T11:54:31.808Z,8.75
2023-02-19T11:57:04.901Z,8.72
2023-02-19T11:59:54.632Z,8.64
2023-02-19T12:02:31.656Z,8.58
2023-02-19T12:05:01.222Z,8.60
2023-02-19T12:07:53.021Z,8.62
2023-02-19T12:10:29.023Z,8.63
2023-02-19T12:13:04.794Z,8.70
2023-02-19T12:15:50.023Z,8.74
2023-02-19T12:18:23.778Z,8.77
2023-02-19T12:20:50.248Z,8.75
2023-02-19T12:23:35.577Z,8.72
2023-02-19T12:26:14.297Z,8.68
2023-02-19T12:28:47.862Z,8.68
2023-02-19T12:31:17.818Z,8.70
2023-02-19T12:34:03.241Z,8.62
2023-02-19T12:36:50.011Z,8.60
2023-02-19T12:39:26.610Z,8.55
2023-02-19T12:42:13.262Z,8.42
2023-02-19T12:44:39.889Z,8.40
2023-02-19T12:47:09.313Z,8.27
2023-02-19T12:49:42.516Z,8.08
2023-02-19T12:52:16.647Z,7.86
2023-02-19T12:54:44.263Z,7.74
2023-02-19T12:57:14.890Z,7.65
2023-02-19T12:59:53.779Z,7.62
2023-02-19T13:02:38.902Z,7.55
2023-02-19T13:05:15.602Z,7.42
2023-02-19T13:08:11.414Z,7.40
2023-02-19T13:10:43.374Z,7.37
2023-02-19T13:13:17.776Z,7.43
2023-02-19T13:15:45.634Z,7.27
2023-02-19T13:18:31.946Z,7.16
2023-02-19T13:20:58.428Z,7.04
2023-02-19T13:23:53.855Z,7.03
2023-02-19T13:26:40.593Z,6.79
2023-02-19T13:29:16.393Z,6.55
2023-02-19T13:31:49.254Z,6.34
2023-02-19T13:34:34.120Z,6.28
2023-02-19T13:37:01.097Z,6.19
2023-02-19T13:39:28.554Z,6.17
2023-02-19T13:41:59.054Z,6.16
2023-02-19T13:44:29.210Z,6.12
2023-02-19T13:46:55.768Z,5.95
2023-02-19T13:49:28.312Z,5.90
2023-02-19T13:51:58.340Z,5.83
2023-02-19T13:54:26.509Z,5.80
2023-02-19T13:57:12.345Z,5.73
2023-02-19T13:59:38.989Z,5.74
2023-02-19T14:02:06.684Z,5.67
2023-02-19T14:04:51.581Z,5.64
2023-02-19T14:07:18.077Z,5.65
2023-02-19T14:09:47.622Z,5.58
2023-02-19T14:12:15.931Z,5.52
2023-02-19T14:14:45.991Z,5.57
2023-02-19T14:17:25.771Z,5.53
2023-02-19T14:20:12.448Z,5.56
2023-02-19T14:22:45.235Z,5.45
2023-02-19T14:25:14.772Z,5.39
2023-02-19T14:27:41.358Z,5.27
2023-02-19T14:30:09.624Z,5.18
2023-02-19T14:32:36.067Z,5.08
2023-02-19T14:35:02.522Z,5.01
2023-02-19T14:37:29.046Z,4.98
2023-02-19T14:39:57.906Z,4.86
2023-02-19T14:42:32.617Z,4.81
2023-02-19T14:44:59.878Z,4.76
2023-02-19T14:47:27.250Z,4.69
2023-02-19T14:50:20.109Z,4.68
2023-02-19T14:52:48.213Z,4.58
2023-02-19T14:55:23.534Z,4.53
2023-02-19T14:57:50.184Z,4.40
2023-02-19T15:00:22.837Z,4.31
2023-02-19T15:02:57.854Z,4.26
2023-02-19T15:05:25.580Z,4.19
2023-02-19T15:07:52.427Z,4.17
2023-02-19T15:10:19.716Z,4.25
2023-02-19T15:12:47.310Z,4.33
2023-02-19T15:15:23.949Z,4.15
2023-02-19T15:17:50.643Z,4.13
2023-02-19T15:20:18.182Z,3.98
2023-02-19T15:22:46.084Z,3.88
2023-02-19T15:25:16.278Z,3.95
2023-02-19T15:27:42.763Z,3.99
2023-02-19T15:30:19.521Z,3.86
2023-02-19T15:32:55.887Z,3.81
2023-02-19T15:35:23.990Z,3.83
2023-02-19T15:37:50.430Z,3.84
2023-02-19T15:40:16.878Z,3.84
2023-02-19T15:42:46.451Z,3.81
2023-02-19T15:45:16.010Z,3.88
2023-02-19T15:47:42.411Z,3.93
2023-02-19T15:50:11.617Z,3.82
2023-02-19T15:52:50.839Z,3.73
2023-02-19T15:55:26.715Z,3.73
2023-02-19T15:58:16.502Z,3.70
2023-02-19T16:00:46.697Z,3.59
2023-02-19T16:03:15.473Z,3.53
2023-02-19T16:05:42.077Z,3.48
2023-02-19T16:08:16.529Z,3.37
2023-02-19T16:10:52.420Z,3.31
2023-02-19T16:13:22.391Z,3.25
2023-02-19T16:15:54.863Z,3.20
2023-02-19T16:18:21.305Z,3.20
2023-02-19T16:20:47.848Z,3.23
2023-02-19T16:23:15.157Z,3.23
2023-02-19T16:25:44.096Z,3.19
2023-02-19T16:28:11.422Z,3.26
2023-02-19T16:30:37.950Z,3.30
2023-02-19T16:33:23.375Z,3.32
2023-02-19T16:35:52.208Z,3.30
2023-02-19T16:38:19.169Z,3.26
2023-02-19T16:40:48.653Z,3.23
2023-02-19T16:43:15.376Z,3.20
2023-02-19T16:45:42.447Z,3.27
2023-02-19T16:48:09.230Z,3.13
2023-02-19T16:50:35.752Z,3.02
2023-02-19T16:53:02.934Z,2.98
2023-02-19T16:55:29.820Z,3.06
2023-02-19T16:57:56.300Z,2.97
2023-02-19T17:00:23.560Z,2.94
2023-02-19T17:02:54.160Z,2.92
2023-02-19T17:05:20.689Z,2.85
2023-02-19T17:07:47.261Z,2.87
2023-02-19T17:10:14.527Z,2.76
2023-02-19T17:12:40.947Z,2.74
2023-02-19T17:15:07.573Z,2.79
2023-02-19T17:17:35.021Z,2.77
2023-02-19T17:20:01.639Z,2.77
2023-02-19T17:22:28.376Z,2.71
2023-02-19T17:24:55.408Z,2.68
2023-02-19T17:27:21.933Z,2.60
2023-02-19T17:29:48.415Z,2.53
2023-02-19T17:32:15.194Z,2.53
2023-02-19T17:34:42.061Z,2.41
2023-02-19T17:37:08.524Z,2.40
2023-02-19T17:39:35.015Z,2.41
2023-02-19T17:42:01.646Z,2.43
2023-02-19T17:44:28.057Z,2.50
2023-02-19T17:46:54.537Z,2.43
2023-02-19T17:49:21.124Z,2.39
2023-02-19T17:51:47.585Z,2.39
2023-02-19T17:54:14.188Z,2.28
2023-02-19T17:56:43.349Z,2.19
2023-02-19T17:59:10.020Z,2.18
2023-02-19T18:01:36.650Z,2.15
2023-02-19T18:04:03.325Z,2.16
2023-02-19T18:06:29.876Z,2.17
2023-02-19T18:08:56.541Z,2.17
2023-02-19T18:11:23.056Z,2.22
2023-02-19T18:13:49.854Z,2.22
2023-02-19T18:16:17.419Z,2.20
2023-02-19T18:18:44.470Z,2.20
2023-02-19T18:21:11.478Z,2.23
2023-02-19T18:23:38.422Z,2.20
2023-02-19T18:26:07.142Z,2.20
2023-02-19T18:28:34.105Z,2.23
2023-02-19T18:31:00.698Z,2.38
2023-02-19T18:33:27.191Z,2.31
2023-02-19T18:35:53.626Z,2.24
2023-02-19T18:38:20.269Z,2.29
2023-02-19T18:40:47.369Z,2.27
2023-02-19T18:43:14.070Z,2.23
2023-02-19T18:45:40.841Z,2.17
2023-02-19T18:48:07.419Z,2.10
2023-02-19T18:50:35.214Z,2.06
2023-02-19T18:53:01.786Z,2.03
2023-02-19T18:55:28.383Z,1.99
2023-02-19T18:57:54.870Z,1.93
2023-02-19T19:00:22.924Z,1.88
2023-02-19T19:02:51.660Z,1.87
2023-02-19T19:05:18.740Z,1.83
2023-02-19T19:07:45.195Z,1.86
2023-02-19T19:10:11.654Z,1.80
2023-02-19T19:12:38.410Z,1.73
2023-02-19T19:15:05.570Z,1.68
2023-02-19T19:17:32.012Z,1.67
2023-02-19T19:19:58.620Z,1.65
2023-02-19T19:22:26.705Z,1.61
2023-02-19T19:24:53.328Z,1.59
2023-02-19T19:27:19.907Z,1.59
2023-02-19T19:29:47.406Z,1.55
2023-02-19T19:32:14.249Z,1.55
2023-02-19T19:34:41.108Z,1.60
2023-02-19T19:37:07.588Z,1.62
2023-02-19T19:39:34.257Z,1.63
2023-02-19T19:42:00.843Z,1.61
2023-02-19T19:44:27.301Z,1.64
2023-02-19T19:46:55.520Z,1.71
2023-02-19T19:49:22.322Z,1.82
2023-02-19T19:51:49.065Z,1.87
2023-02-19T19:54:15.585Z,1.87
2023-02-19T19:56:42.801Z,1.90
2023-02-19T19:59:12.930Z,1.86
2023-02-19T20:01:39.468Z,1.83
2023-02-19T20:04:06.057Z,1.82
2023-02-19T20:06:32.621Z,1.86
2023-02-19T20:09:00.095Z,1.84
2023-02-19T20:11:26.536Z,1.84
2023-02-19T20:13:53.042Z,1.79
2023-02-19T20:16:28.734Z,1.84
2023-02-19T20:18:55.297Z,1.78
2023-02-19T20:21:21.851Z,1.74
2023-02-19T20:23:48.497Z,1.72
2023-02-19T20:26:20.858Z,1.72
2023-02-19T20:28:47.545Z,1.72
2023-02-19T20:31:14.605Z,1.78
2023-02-19T20:33:41.613Z,1.75
2023-02-19T20:36:08.299Z,1.77
2023-02-19T20:38:34.790Z,1.79
2023-02-19T20:41:02.466Z,1.80
2023-02-19T20:43:28.982Z,1.79
2023-02-19T20:45:55.446Z,1.80
2023-02-19T20:48:21.898Z,1.82
2023-02-19T20:50:48.339Z,1.80
2023-02-19T20:53:14.761Z,1.80
2023-02-19T20:55:41.335Z,1.80
2023-02-19T20:58:07.760Z,1.81
2023-02-19T21:00:34.218Z,1.82
2023-02-19T21:03:00.716Z,1.83
2023-02-19T21:05:27.165Z,1.82
2023-02-19T21:07:53.973Z,1.81
2023-02-19T21:10:26.135Z,1.79
2023-02-19T21:13:02.845Z,1.75
2023-02-19T21:15:29.375Z,1.71
2023-02-19T21:17:55.869Z,1.68
2023-02-19T21:20:31.549Z,1.60
2023-02-19T21:22:58.142Z,1.54
2023-02-19T21:25:24.620Z,1.47
2023-02-19T21:27:51.559Z,1.39
2023-02-19T21:30:18.385Z,1.34
2023-02-19T21:32:45.094Z,1.31
2023-02-19T21:35:11.684Z,1.30
2023-02-19T21:37:41.056Z,1.29
2023-02-19T21:40:08.766Z,1.31
2023-02-19T21:42:35.287Z,1.32
2023-02-19T21:45:01.753Z,1.32
2023-02-19T21:47:28.988Z,1.31
2023-02-19T21:49:55.447Z,1.33
2023-02-19T21:52:23.427Z,1.31
2023-02-19T21:54:49.957Z,1.32
2023-02-19T21:57:16.467Z,1.34
2023-02-19T21:59:42.950Z,1.35
2023-02-19T22:02:09.625Z,1.38
2023-02-19T22:04:36.070Z,1.40
2023-02-19T22:07:02.531Z,1.43
2023-02-19T22:09:28.974Z,1.45
2023-02-19T22:11:55.604Z,1.47
2023-02-19T22:14:22.050Z,1.47
2023-02-19T22:16:48.582Z,1.49
2023-02-19T22:19:15.191Z,1.50
2023-02-19T22:21:42.372Z,1.51
2023-02-19T22:24:10.373Z,1.50
2023-02-19T22:26:36.885Z,1.52
2023-02-19T22:29:07.077Z,1.53
2023-02-19T22:31:33.856Z,1.53
2023-02-19T22:34:00.355Z,1.55
2023-02-19T22:36:27.933Z,1.53
2023-02-19T22:38:54.651Z,1.50
2023-02-19T22:41:21.229Z,1.47
2023-02-19T22:43:47.772Z,1.45
2023-02-19T22:46:15.545Z,1.45
2023-02-19T22:48:42.178Z,1.47
2023-02-19T22:51:13.258Z,1.47
2023-02-19T22:54:06.054Z,1.47
2023-02-19T22:56:32.666Z,1.48
2023-02-19T22:58:59.130Z,1.48
2023-02-19T23:01:25.659Z,1.46
2023-02-19T23:03:52.956Z,1.46
2023-02-19T23:06:26.421Z,1.45
2023-02-19T23:08:53.516Z,1.44
2023-02-19T23:11:20.637Z,1.43
2023-02-19T23:13:47.080Z,1.40
2023-02-19T23:16:13.733Z,1.39
2023-02-19T23:18:40.461Z,1.40
2023-02-19T23:21:06.991Z,1.37
2023-02-19T23:23:33.431Z,1.37
2023-02-19T23:25:59.858Z,1.36
2023-02-19T23:28:26.428Z,1.33
2023-02-19T23:30:52.949Z,1.34
2023-02-19T23:33:19.490Z,1.33
2023-02-19T23:35:46.130Z,1.32
2023-02-19T23:38:12.661Z,1.30
2023-02-19T23:40:39.090Z,1.29
2023-02-19T23:43:05.546Z,1.29
2023-02-19T23:45:31.953Z,1.26
2023-02-19T23:47:58.506Z,1.26
2023-02-19T23:50:25.046Z,1.22
2023-02-19T23:52:51.578Z,1.17
2023-02-19T23:55:18.007Z,1.14
2023-02-19T23:57:44.435Z,1.13
